Weather Outlook- 19th January 2022 (6pm)

A few showers are forecast for tonight across SVG, with showers lingering across the Grenadines by early morning. After which, the chance of showers decreases. Fair skies alternating with cloudy conditions and brief isolated showers are forecast into Saturday.

Easterly trades backing to  east north east (ENE) at approximately 25km/h-35km/h will allow for occasional breezy conditions across the island during the next 24 hours. Wind speeds are likely to increase to roughly 40km/h from Friday into Saturday.

Sea conditions will be slight to moderate in open water, with swells ranging between 1.0m- 1.5m on the western coasts and ranging between 2.0-2.5m on the eastern coasts. In addition, there will be no significant haze intrusion within this forecast period.

Aviation WX

[Source: ADDS]
METAR
TVSA 240535Z 2406/2506 09010KT 9999 SCT020 TAF
TVSA 240535Z 2406/2506 09010KT 9999 SCT020 =
SR / SS: 09:37 / 22:25 UTC (Sunrise Sunset 2022-05-24)